Time;durP1;ratioP1;P1;durP2;ratioP2;P2;SDS_P1;SDS_P2;PMS_P1;PMS_P2;Temp;Humidity;BMP_temperature;BMP_pressure;BME280_temperature;BME280_humidity;BME280_pressure;Samples;Min_cycle;Max_cycle;Signal;HPM_P1;HPM_P2
2021/06/25 00:02:30;;;;;;;7.4;3;;;;;;;15.23;100;98385.23;;;;
2021/06/25 00:12:30;;;;;;;5.7;2.5;;;;;;;15.26;100;98370.98;;;;
2021/06/25 00:22:30;;;;;;;4.7;2.6;;;;;;;15.32;100;98387.81;;;;
2021/06/25 00:32:28;;;;;;;7.9;1.8;;;;;;;15.41;100;98415.64;;;;
2021/06/25 00:42:28;;;;;;;5.1;2.2;;;;;;;15.51;100;98420.63;;;;
2021/06/25 00:52:27;;;;;;;6.7;2.1;;;;;;;15.51;100;98443.15;;;;
2021/06/25 01:02:26;;;;;;;4.2;1.9;;;;;;;15.36;100;98443.02;;;;
2021/06/25 01:12:26;;;;;;;5;2.4;;;;;;;15.23;100;98441.46;;;;
2021/06/25 01:22:25;;;;;;;12.3;3.1;;;;;;;15.16;100;98427.66;;;;
2021/06/25 01:32:25;;;;;;;3.8;2.5;;;;;;;15.29;100;98412.94;;;;
2021/06/25 01:42:24;;;;;;;5;2.4;;;;;;;15.27;100;98377.97;;;;
2021/06/25 01:52:24;;;;;;;5.4;2.5;;;;;;;15.22;100;98424.38;;;;
2021/06/25 02:02:23;;;;;;;10.1;3.6;;;;;;;15.26;100;98500.51;;;;
2021/06/25 02:22:22;;;;;;;7.6;4.1;;;;;;;15.22;100;98429.8;;;;
2021/06/25 02:32:22;;;;;;;7.2;4;;;;;;;15.4;100;98452.86;;;;
2021/06/25 02:42:21;;;;;;;7.7;3.7;;;;;;;15.58;100;98475.93;;;;
2021/06/25 02:52:21;;;;;;;9.3;5.5;;;;;;;15.64;100;98422.16;;;;
2021/06/25 03:02:20;;;;;;;6.5;4.4;;;;;;;15.82;100;98599.32;;;;
2021/06/25 03:12:20;;;;;;;6.7;3.9;;;;;;;15.9;100;98394.54;;;;
2021/06/25 03:22:19;;;;;;;6.9;4.3;;;;;;;16.1;100;98382.69;;;;
2021/06/25 03:32:19;;;;;;;8.9;3.2;;;;;;;16.33;100;98401.91;;;;
2021/06/25 03:42:18;;;;;;;6.1;3.7;;;;;;;16.25;100;98395.49;;;;
2021/06/25 03:52:18;;;;;;;5.5;4.1;;;;;;;16.53;100;98404.39;;;;
2021/06/25 04:02:17;;;;;;;6.3;3.6;;;;;;;16.84;100;98397.38;;;;
2021/06/25 04:12:17;;;;;;;7.1;3.4;;;;;;;17.19;100;98378.34;;;;
2021/06/25 04:22:17;;;;;;;7.3;3.6;;;;;;;17.28;100;98368.05;;;;
2021/06/25 04:32:19;;;;;;;7.5;2.9;;;;;;;17.44;100;98352.43;;;;
2021/06/25 04:42:17;;;;;;;9.2;3.4;;;;;;;17.52;100;98354.16;;;;
2021/06/25 04:52:16;;;;;;;7.1;3.1;;;;;;;17.64;100;98339.61;;;;
2021/06/25 05:02:16;;;;;;;9.4;3.6;;;;;;;17.98;100;98327.8;;;;
2021/06/25 05:12:16;;;;;;;7;3.6;;;;;;;18.26;100;98338.42;;;;
2021/06/25 05:22:16;;;;;;;7.5;3.9;;;;;;;18.45;100;98350.08;;;;
2021/06/25 05:32:16;;;;;;;6.9;3.2;;;;;;;18.77;100;98342.44;;;;
2021/06/25 05:42:16;;;;;;;14.9;4;;;;;;;19.08;100;98333.13;;;;
2021/06/25 05:52:16;;;;;;;6.6;3.2;;;;;;;19.39;100;98335.5;;;;
2021/06/25 06:02:16;;;;;;;7.6;3.4;;;;;;;20.15;100;98329.72;;;;
2021/06/25 06:12:16;;;;;;;5.9;1.9;;;;;;;20.53;100;98323.83;;;;
2021/06/25 06:32:20;;;;;;;6.1;3;;;;;;;21.92;100;98368.13;;;;
2021/06/25 06:42:17;;;;;;;6.7;3.6;;;;;;;21.99;100;98392.05;;;;
2021/06/25 06:52:17;;;;;;;6.5;3;;;;;;;21.65;100;98396.2;;;;
2021/06/25 07:02:18;;;;;;;8.7;4.4;;;;;;;21.46;100;98411.78;;;;
2021/06/25 07:12:18;;;;;;;5.7;2.5;;;;;;;21.75;100;98428.39;;;;
2021/06/25 07:22:18;;;;;;;4.9;2.3;;;;;;;22.43;100;98433.73;;;;
2021/06/25 07:32:19;;;;;;;5.2;2.4;;;;;;;22.54;100;98431.02;;;;
2021/06/25 07:42:21;;;;;;;7.6;2.5;;;;;;;22.73;100;98416.95;;;;
2021/06/25 07:52:20;;;;;;;7.2;3.5;;;;;;;22.88;100;98439.7;;;;
2021/06/25 08:02:21;;;;;;;8.2;3.4;;;;;;;22.58;100;98440.05;;;;
2021/06/25 08:12:21;;;;;;;9.2;5;;;;;;;22.62;100;98446.34;;;;
2021/06/25 08:22:22;;;;;;;8.9;3.2;;;;;;;22.69;100;98449.13;;;;
2021/06/25 08:32:22;;;;;;;4.6;2.1;;;;;;;22.21;100;98464.28;;;;
2021/06/25 08:42:23;;;;;;;5;3;;;;;;;22.35;100;98472.57;;;;
2021/06/25 08:52:23;;;;;;;8;3.6;;;;;;;22.66;100;98482.06;;;;
2021/06/25 09:02:24;;;;;;;4.8;2.6;;;;;;;22.68;100;98475.02;;;;
2021/06/25 09:12:24;;;;;;;8.3;3.4;;;;;;;22.79;100;98473.08;;;;
2021/06/25 09:22:25;;;;;;;5.2;2.5;;;;;;;23.01;100;98463.66;;;;
2021/06/25 09:32:26;;;;;;;5.5;2.7;;;;;;;23.79;100;98457.3;;;;
2021/06/25 09:42:26;;;;;;;5.4;2.5;;;;;;;24.01;100;98467.06;;;;
2021/06/25 09:52:27;;;;;;;9.2;3;;;;;;;23.69;100;98472.66;;;;
2021/06/25 10:02:28;;;;;;;6.3;2.2;;;;;;;23.38;100;98474.27;;;;
2021/06/25 10:12:29;;;;;;;6.7;3.2;;;;;;;23.45;100;98479.78;;;;
2021/06/25 10:22:29;;;;;;;5.1;2.9;;;;;;;23.4;100;98502.15;;;;
2021/06/25 10:32:30;;;;;;;7.8;4.5;;;;;;;23.25;100;98511.6;;;;
2021/06/25 10:42:41;;;;;;;5.3;2.7;;;;;;;22.84;100;98513.91;;;;
2021/06/25 10:52:31;;;;;;;8.7;4;;;;;;;22.74;100;98519.38;;;;
2021/06/25 11:02:42;;;;;;;7.1;3.2;;;;;;;22.34;100;98545.13;;;;
2021/06/25 11:12:33;;;;;;;18.4;10.2;;;;;;;21.76;100;98532.27;;;;
2021/06/25 11:22:39;;;;;;;16.8;11;;;;;;;21.42;100;98552.77;;;;
2021/06/25 11:32:33;;;;;;;20.9;14.6;;;;;;;21.15;100;98578.77;;;;
2021/06/25 11:42:34;;;;;;;20.9;15.7;;;;;;;20.87;100;98576.5;;;;
2021/06/25 11:52:35;;;;;;;24.6;15.7;;;;;;;20.74;100;98594.36;;;;
2021/06/25 12:02:35;;;;;;;21.6;17.2;;;;;;;20.61;100;98588.36;;;;
2021/06/25 12:12:35;;;;;;;22.4;18.8;;;;;;;20.21;100;98585.45;;;;
2021/06/25 12:22:35;;;;;;;16.9;14.1;;;;;;;20.1;100;98574.36;;;;
2021/06/25 12:32:35;;;;;;;19.2;14.1;;;;;;;20.45;100;98560.38;;;;
2021/06/25 12:42:35;;;;;;;19.5;17.3;;;;;;;20.87;100;98571.81;;;;
2021/06/25 12:52:36;;;;;;;27.4;20.6;;;;;;;21.68;100;98560.81;;;;
2021/06/25 13:02:36;;;;;;;22;19.6;;;;;;;22.53;100;98569.52;;;;
2021/06/25 13:12:37;;;;;;;25.2;19;;;;;;;22.83;100;98570.06;;;;
2021/06/25 13:22:37;;;;;;;26.6;19.2;;;;;;;22.62;100;98574.67;;;;
2021/06/25 13:32:38;;;;;;;17.7;15.2;;;;;;;22.22;100;98572.91;;;;
2021/06/25 13:42:38;;;;;;;19.9;16.3;;;;;;;21.69;100;98595.31;;;;
2021/06/25 13:52:39;;;;;;;24.8;17.2;;;;;;;21.93;100;98581.02;;;;
2021/06/25 14:02:39;;;;;;;23.8;19.5;;;;;;;22.13;100;98592.49;;;;
2021/06/25 14:12:40;;;;;;;21.4;15.1;;;;;;;22.04;100;98603.04;;;;
2021/06/25 14:22:40;;;;;;;13.9;12.4;;;;;;;22.01;100;98590.84;;;;
2021/06/25 14:32:41;;;;;;;23;19.8;;;;;;;21.82;100;98588.34;;;;
2021/06/25 14:42:41;;;;;;;27.3;20.2;;;;;;;21.47;100;98575.16;;;;
2021/06/25 14:52:42;;;;;;;26;22.8;;;;;;;21.54;100;98568.94;;;;
2021/06/25 15:02:42;;;;;;;25.8;22.6;;;;;;;21.68;100;98576.48;;;;
2021/06/25 15:12:42;;;;;;;23.2;20.4;;;;;;;22.12;100;98568.95;;;;
2021/06/25 15:22:43;;;;;;;27.4;22.3;;;;;;;22.45;100;98570.69;;;;
2021/06/25 15:32:43;;;;;;;31.6;24.6;;;;;;;22.65;100;98582.92;;;;
2021/06/25 15:42:44;;;;;;;26.2;22;;;;;;;22.49;100;98576.98;;;;
2021/06/25 15:52:44;;;;;;;30.3;23.4;;;;;;;22.55;100;98575.44;;;;
2021/06/25 16:02:45;;;;;;;28.3;23.1;;;;;;;22.05;100;98577.14;;;;
2021/06/25 16:12:46;;;;;;;26.3;21.9;;;;;;;22.5;100;98570.3;;;;
2021/06/25 16:22:46;;;;;;;34.9;25.1;;;;;;;22.43;100;98559.28;;;;
2021/06/25 16:32:47;;;;;;;26;20.2;;;;;;;22.19;100;98555.26;;;;
2021/06/25 16:42:47;;;;;;;24.1;20.1;;;;;;;23.17;100;98566.97;;;;
2021/06/25 16:52:48;;;;;;;24.2;16.6;;;;;;;23.34;100;98571.7;;;;
2021/06/25 17:02:49;;;;;;;20.3;16.2;;;;;;;23.46;100;98565.86;;;;
2021/06/25 17:12:49;;;;;;;16.3;12.9;;;;;;;22.94;100;98589.33;;;;
2021/06/25 17:22:52;;;;;;;16.7;14.3;;;;;;;22.51;100;98589.16;;;;
2021/06/25 17:32:52;;;;;;;17.5;13.4;;;;;;;22.28;100;98601.6;;;;
2021/06/25 17:42:52;;;;;;;25.4;22.8;;;;;;;21.83;100;98614.59;;;;
2021/06/25 17:52:52;;;;;;;21.1;18.1;;;;;;;21.57;100;98628.51;;;;
2021/06/25 18:02:53;;;;;;;14.6;12.6;;;;;;;21.33;100;98618.11;;;;
2021/06/25 18:12:52;;;;;;;16.6;13.6;;;;;;;21.23;100;98599.61;;;;
2021/06/25 18:22:54;;;;;;;17;12.8;;;;;;;21.13;100;98600.3;;;;
2021/06/25 18:32:53;;;;;;;19.6;17.5;;;;;;;20.79;100;98618.7;;;;
2021/06/25 18:42:53;;;;;;;23.2;20.4;;;;;;;20.67;100;98610.71;;;;
2021/06/25 18:52:54;;;;;;;25.9;21;;;;;;;20.5;100;98596.44;;;;
2021/06/25 19:02:55;;;;;;;24.9;20.4;;;;;;;20.35;100;98610.31;;;;
2021/06/25 19:12:54;;;;;;;24.2;20.5;;;;;;;20.16;100;98618.63;;;;
2021/06/25 19:22:54;;;;;;;23.6;20.1;;;;;;;19.93;100;98633.14;;;;
2021/06/25 19:32:55;;;;;;;24.5;21.5;;;;;;;19.75;100;98629.34;;;;
2021/06/25 19:42:55;;;;;;;25.9;23.2;;;;;;;19.74;100;98610.58;;;;
2021/06/25 19:52:55;;;;;;;25.5;20.1;;;;;;;19.61;100;98617.41;;;;
2021/06/25 20:02:55;;;;;;;25.2;20.1;;;;;;;19.46;100;98614.43;;;;
2021/06/25 20:12:57;;;;;;;24.5;21.4;;;;;;;19.34;100;98643.84;;;;
2021/06/25 20:22:55;;;;;;;27.5;22.2;;;;;;;19.32;100;98629.76;;;;
2021/06/25 20:32:56;;;;;;;27;22.6;;;;;;;19.25;100;98607.77;;;;
2021/06/25 20:42:56;;;;;;;24;21.4;;;;;;;19.04;100;98594.52;;;;
2021/06/25 20:52:55;;;;;;;28.7;24.5;;;;;;;18.6;100;98599.55;;;;
2021/06/25 21:02:55;;;;;;;25.2;22.8;;;;;;;18.39;100;98612.72;;;;
2021/06/25 21:12:55;;;;;;;32.1;26.1;;;;;;;18.31;100;98640.99;;;;
2021/06/25 21:22:55;;;;;;;24.8;22.1;;;;;;;18.27;100;98627.27;;;;
2021/06/25 21:32:55;;;;;;;37;23.3;;;;;;;18.22;100;98651.33;;;;
2021/06/25 21:42:55;;;;;;;27.8;23.6;;;;;;;18.3;100;98637.47;;;;
2021/06/25 21:52:55;;;;;;;25.7;22.6;;;;;;;18.32;100;98665.2;;;;
2021/06/25 22:02:54;;;;;;;26;23.2;;;;;;;18.43;100;98666.2;;;;
2021/06/25 22:12:54;;;;;;;27;23.8;;;;;;;18.45;100;98668.59;;;;
2021/06/25 22:22:54;;;;;;;27.5;24.7;;;;;;;18.42;100;98659.19;;;;
2021/06/25 22:32:54;;;;;;;37.6;23.7;;;;;;;18.47;100;98658.89;;;;
2021/06/25 22:42:54;;;;;;;26.9;24;;;;;;;18.45;100;98646.76;;;;
2021/06/25 22:52:54;;;;;;;26.8;24;;;;;;;18.42;100;98637.36;;;;
2021/06/25 23:02:54;;;;;;;29;25.9;;;;;;;18.48;100;98618.75;;;;
2021/06/25 23:12:54;;;;;;;30.5;27.3;;;;;;;18.49;100;98634.78;;;;
2021/06/25 23:22:54;;;;;;;23;20.6;;;;;;;18.58;100;98640.04;;;;
2021/06/25 23:32:54;;;;;;;25.5;23;;;;;;;18.43;100;98643.61;;;;
2021/06/25 23:42:54;;;;;;;27.7;22.9;;;;;;;18.44;100;98662.34;;;;
2021/06/25 23:52:54;;;;;;;28;25.2;;;;;;;18.48;100;98673.33;;;;
